sensor_id;sensor_type;location;lat;lon;timestamp;pressure;altitude;pressure_sealevel;temperature;humidity
73910;BME280;62245;48.070;7.874;2022-07-23T00:02:24;98985.13;;;25.68;50.74
73910;BME280;62245;48.070;7.874;2022-07-23T00:04:49;98983.69;;;25.70;51.36
73910;BME280;62245;48.070;7.874;2022-07-23T00:07:14;98988.19;;;25.52;52.74
73910;BME280;62245;48.070;7.874;2022-07-23T00:09:40;98987.00;;;25.45;53.31
73910;BME280;62245;48.070;7.874;2022-07-23T00:12:05;98963.84;;;25.42;52.93
73910;BME280;62245;48.070;7.874;2022-07-23T00:14:31;98953.88;;;25.24;53.66
73910;BME280;62245;48.070;7.874;2022-07-23T00:16:56;98983.19;;;25.32;53.56
73910;BME280;62245;48.070;7.874;2022-07-23T00:19:21;98996.38;;;25.16;54.43
73910;BME280;62245;48.070;7.874;2022-07-23T00:21:46;99001.34;;;25.14;54.96
73910;BME280;62245;48.070;7.874;2022-07-23T00:24:12;98989.69;;;25.09;54.86
73910;BME280;62245;48.070;7.874;2022-07-23T00:26:37;98993.22;;;24.68;55.60
73910;BME280;62245;48.070;7.874;2022-07-23T00:29:02;98995.88;;;24.87;55.21
73910;BME280;62245;48.070;7.874;2022-07-23T00:31:28;98981.03;;;24.93;54.95
73910;BME280;62245;48.070;7.874;2022-07-23T00:33:53;98959.78;;;24.90;55.50
73910;BME280;62245;48.070;7.874;2022-07-23T00:36:22;98934.31;;;24.95;54.11
73910;BME280;62245;48.070;7.874;2022-07-23T00:38:48;98913.00;;;24.97;52.87
73910;BME280;62245;48.070;7.874;2022-07-23T00:41:14;98907.94;;;25.04;52.45
73910;BME280;62245;48.070;7.874;2022-07-23T00:43:39;98919.16;;;25.02;51.44
73910;BME280;62245;48.070;7.874;2022-07-23T00:46:04;98915.72;;;24.97;51.70
73910;BME280;62245;48.070;7.874;2022-07-23T00:48:29;98900.56;;;24.77;51.98
73910;BME280;62245;48.070;7.874;2022-07-23T00:50:55;98894.50;;;24.94;51.83
73910;BME280;62245;48.070;7.874;2022-07-23T00:53:20;98877.09;;;24.90;50.79
73910;BME280;62245;48.070;7.874;2022-07-23T00:55:47;98876.88;;;25.00;50.39
73910;BME280;62245;48.070;7.874;2022-07-23T00:58:12;98881.75;;;25.03;50.36
73910;BME280;62245;48.070;7.874;2022-07-23T01:00:38;98886.97;;;25.13;50.57
73910;BME280;62245;48.070;7.874;2022-07-23T01:03:03;98871.72;;;25.12;50.31
73910;BME280;62245;48.070;7.874;2022-07-23T01:05:29;98883.13;;;25.14;50.64
73910;BME280;62245;48.070;7.874;2022-07-23T01:07:54;98887.41;;;24.93;51.90
73910;BME280;62245;48.070;7.874;2022-07-23T01:10:19;98890.84;;;24.85;52.79
73910;BME280;62245;48.070;7.874;2022-07-23T01:13:08;98903.59;;;24.75;53.06
73910;BME280;62245;48.070;7.874;2022-07-23T01:15:36;98891.88;;;24.75;55.27
73910;BME280;62245;48.070;7.874;2022-07-23T01:18:02;98888.84;;;24.76;60.02
73910;BME280;62245;48.070;7.874;2022-07-23T01:20:29;98887.44;;;24.65;60.90
73910;BME280;62245;48.070;7.874;2022-07-23T01:22:54;98873.03;;;24.65;62.01
73910;BME280;62245;48.070;7.874;2022-07-23T01:25:20;98859.69;;;24.63;63.86
73910;BME280;62245;48.070;7.874;2022-07-23T01:27:46;98868.28;;;24.43;63.78
73910;BME280;62245;48.070;7.874;2022-07-23T01:30:12;98869.31;;;24.47;64.48
73910;BME280;62245;48.070;7.874;2022-07-23T01:32:37;98881.41;;;24.41;64.88
73910;BME280;62245;48.070;7.874;2022-07-23T01:35:04;98885.22;;;24.40;64.73
73910;BME280;62245;48.070;7.874;2022-07-23T01:37:29;98915.47;;;23.97;64.27
73910;BME280;62245;48.070;7.874;2022-07-23T01:39:55;98919.03;;;23.79;64.26
73910;BME280;62245;48.070;7.874;2022-07-23T01:42:20;98902.28;;;23.72;66.62
73910;BME280;62245;48.070;7.874;2022-07-23T01:44:45;98890.69;;;23.80;65.95
73910;BME280;62245;48.070;7.874;2022-07-23T01:47:11;98910.13;;;23.60;65.71
73910;BME280;62245;48.070;7.874;2022-07-23T01:49:36;98909.63;;;23.72;64.85
73910;BME280;62245;48.070;7.874;2022-07-23T01:52:02;98910.47;;;23.53;66.21
73910;BME280;62245;48.070;7.874;2022-07-23T01:54:33;98907.41;;;23.60;65.68
73910;BME280;62245;48.070;7.874;2022-07-23T01:56:59;98914.13;;;23.49;66.97
73910;BME280;62245;48.070;7.874;2022-07-23T01:59:26;98911.81;;;23.56;66.48
73910;BME280;62245;48.070;7.874;2022-07-23T02:01:51;98904.91;;;23.26;66.58
73910;BME280;62245;48.070;7.874;2022-07-23T02:04:21;98935.16;;;23.24;67.24
73910;BME280;62245;48.070;7.874;2022-07-23T02:06:47;98941.47;;;23.39;66.71
73910;BME280;62245;48.070;7.874;2022-07-23T02:09:12;98943.66;;;23.37;66.59
73910;BME280;62245;48.070;7.874;2022-07-23T02:11:38;98956.69;;;23.40;66.93
73910;BME280;62245;48.070;7.874;2022-07-23T02:14:04;98966.38;;;23.51;65.97
73910;BME280;62245;48.070;7.874;2022-07-23T02:16:29;98961.94;;;23.55;65.98
73910;BME280;62245;48.070;7.874;2022-07-23T02:18:54;98978.22;;;23.60;65.66
73910;BME280;62245;48.070;7.874;2022-07-23T02:21:20;98972.81;;;23.55;65.73
73910;BME280;62245;48.070;7.874;2022-07-23T02:23:45;98946.78;;;23.49;66.28
73910;BME280;62245;48.070;7.874;2022-07-23T02:26:10;98956.84;;;23.48;66.48
73910;BME280;62245;48.070;7.874;2022-07-23T02:28:36;98969.28;;;23.54;66.52
73910;BME280;62245;48.070;7.874;2022-07-23T02:31:01;98980.72;;;23.56;66.53
73910;BME280;62245;48.070;7.874;2022-07-23T02:33:26;98979.03;;;23.60;66.83
73910;BME280;62245;48.070;7.874;2022-07-23T02:35:52;98977.69;;;23.58;66.51
73910;BME280;62245;48.070;7.874;2022-07-23T02:38:17;98979.38;;;23.35;67.25
73910;BME280;62245;48.070;7.874;2022-07-23T02:40:42;98977.25;;;23.51;66.98
73910;BME280;62245;48.070;7.874;2022-07-23T02:43:08;98977.25;;;23.51;67.56
73910;BME280;62245;48.070;7.874;2022-07-23T02:45:33;98980.41;;;23.58;67.25
73910;BME280;62245;48.070;7.874;2022-07-23T02:47:58;98969.00;;;23.56;67.47
73910;BME280;62245;48.070;7.874;2022-07-23T02:50:23;98982.19;;;23.49;66.82
73910;BME280;62245;48.070;7.874;2022-07-23T02:52:49;98965.44;;;23.37;67.35
73910;BME280;62245;48.070;7.874;2022-07-23T02:55:14;98973.03;;;23.40;67.39
73910;BME280;62245;48.070;7.874;2022-07-23T02:57:39;98977.06;;;23.23;68.24
73910;BME280;62245;48.070;7.874;2022-07-23T03:00:06;98973.47;;;23.28;67.95
73910;BME280;62245;48.070;7.874;2022-07-23T03:02:32;98953.38;;;23.24;67.67
73910;BME280;62245;48.070;7.874;2022-07-23T03:04:58;98978.41;;;23.26;67.73
73910;BME280;62245;48.070;7.874;2022-07-23T03:07:23;98994.44;;;23.27;68.18
73910;BME280;62245;48.070;7.874;2022-07-23T03:09:48;98989.31;;;23.26;68.29
73910;BME280;62245;48.070;7.874;2022-07-23T03:12:13;98979.00;;;23.23;68.07
73910;BME280;62245;48.070;7.874;2022-07-23T03:14:39;98969.63;;;23.29;67.93
73910;BME280;62245;48.070;7.874;2022-07-23T03:17:05;98977.22;;;23.32;68.40
73910;BME280;62245;48.070;7.874;2022-07-23T03:19:30;98985.84;;;23.39;68.46
73910;BME280;62245;48.070;7.874;2022-07-23T03:21:55;98998.91;;;23.37;68.87
73910;BME280;62245;48.070;7.874;2022-07-23T03:24:21;99004.06;;;23.39;69.14
73910;BME280;62245;48.070;7.874;2022-07-23T03:26:48;99008.94;;;23.42;68.73
73910;BME280;62245;48.070;7.874;2022-07-23T03:29:14;99023.72;;;23.36;68.23
73910;BME280;62245;48.070;7.874;2022-07-23T03:31:39;99032.47;;;23.32;67.98
73910;BME280;62245;48.070;7.874;2022-07-23T03:34:04;99040.69;;;23.27;69.50
73910;BME280;62245;48.070;7.874;2022-07-23T03:36:29;99031.66;;;23.32;68.82
73910;BME280;62245;48.070;7.874;2022-07-23T03:38:55;99032.78;;;23.31;69.23
73910;BME280;62245;48.070;7.874;2022-07-23T03:41:20;99033.13;;;23.24;69.44
73910;BME280;62245;48.070;7.874;2022-07-23T03:43:46;99048.78;;;23.14;69.23
73910;BME280;62245;48.070;7.874;2022-07-23T03:46:11;99045.50;;;23.17;68.81
73910;BME280;62245;48.070;7.874;2022-07-23T03:48:37;99044.16;;;23.14;68.98
73910;BME280;62245;48.070;7.874;2022-07-23T03:51:02;99045.16;;;23.18;68.37
73910;BME280;62245;48.070;7.874;2022-07-23T03:53:28;99073.09;;;23.05;68.60
73910;BME280;62245;48.070;7.874;2022-07-23T03:55:54;99078.91;;;22.70;69.82
73910;BME280;62245;48.070;7.874;2022-07-23T03:58:19;99071.84;;;22.69;70.03
73910;BME280;62245;48.070;7.874;2022-07-23T04:00:44;99079.44;;;22.72;70.61
73910;BME280;62245;48.070;7.874;2022-07-23T04:03:10;99066.59;;;22.77;69.86
73910;BME280;62245;48.070;7.874;2022-07-23T04:05:35;99046.94;;;22.85;69.56
73910;BME280;62245;48.070;7.874;2022-07-23T04:08:00;99037.84;;;22.95;70.01
73910;BME280;62245;48.070;7.874;2022-07-23T04:10:25;99023.22;;;22.91;70.84
73910;BME280;62245;48.070;7.874;2022-07-23T04:12:51;99006.09;;;22.90;70.68
73910;BME280;62245;48.070;7.874;2022-07-23T04:15:16;99009.66;;;22.86;70.29
73910;BME280;62245;48.070;7.874;2022-07-23T04:17:41;99018.09;;;22.84;70.10
73910;BME280;62245;48.070;7.874;2022-07-23T04:20:07;99037.91;;;22.90;69.45
73910;BME280;62245;48.070;7.874;2022-07-23T04:22:32;99036.69;;;22.77;69.94
73910;BME280;62245;48.070;7.874;2022-07-23T04:24:57;99021.47;;;22.76;70.42
73910;BME280;62245;48.070;7.874;2022-07-23T04:27:23;99031.78;;;22.79;70.42
73910;BME280;62245;48.070;7.874;2022-07-23T04:29:48;99036.06;;;22.85;69.91
73910;BME280;62245;48.070;7.874;2022-07-23T04:32:14;99049.00;;;22.93;69.35
73910;BME280;62245;48.070;7.874;2022-07-23T04:34:39;99070.03;;;22.88;68.55
73910;BME280;62245;48.070;7.874;2022-07-23T04:37:04;99063.97;;;22.96;68.77
73910;BME280;62245;48.070;7.874;2022-07-23T04:39:29;99053.53;;;23.03;69.08
73910;BME280;62245;48.070;7.874;2022-07-23T04:41:55;99048.91;;;23.04;68.90
73910;BME280;62245;48.070;7.874;2022-07-23T04:44:20;99062.97;;;23.11;68.45
73910;BME280;62245;48.070;7.874;2022-07-23T04:46:46;99057.22;;;23.12;67.85
73910;BME280;62245;48.070;7.874;2022-07-23T04:49:11;99056.72;;;23.10;67.75
73910;BME280;62245;48.070;7.874;2022-07-23T04:51:36;99051.78;;;23.12;67.34
73910;BME280;62245;48.070;7.874;2022-07-23T04:54:02;99062.91;;;23.16;66.71
73910;BME280;62245;48.070;7.874;2022-07-23T04:56:27;99051.09;;;23.02;68.75
73910;BME280;62245;48.070;7.874;2022-07-23T04:58:53;99041.09;;;22.97;69.22
73910;BME280;62245;48.070;7.874;2022-07-23T05:01:18;99056.78;;;22.81;69.92
73910;BME280;62245;48.070;7.874;2022-07-23T05:03:43;99053.16;;;22.62;70.43
73910;BME280;62245;48.070;7.874;2022-07-23T05:06:09;99037.00;;;22.71;70.03
73910;BME280;62245;48.070;7.874;2022-07-23T05:08:34;99059.72;;;22.85;70.26
73910;BME280;62245;48.070;7.874;2022-07-23T05:10:59;99044.03;;;22.77;69.89
73910;BME280;62245;48.070;7.874;2022-07-23T05:13:24;99053.53;;;22.50;70.48
73910;BME280;62245;48.070;7.874;2022-07-23T05:15:50;99049.00;;;22.41;71.26
73910;BME280;62245;48.070;7.874;2022-07-23T05:18:15;99049.31;;;22.39;70.92
73910;BME280;62245;48.070;7.874;2022-07-23T05:20:41;99053.31;;;22.47;70.49
73910;BME280;62245;48.070;7.874;2022-07-23T05:23:06;99050.75;;;22.27;71.64
73910;BME280;62245;48.070;7.874;2022-07-23T05:25:32;99048.56;;;22.29;71.59
73910;BME280;62245;48.070;7.874;2022-07-23T05:27:57;99045.19;;;22.42;71.17
73910;BME280;62245;48.070;7.874;2022-07-23T05:30:23;99038.66;;;22.67;70.55
73910;BME280;62245;48.070;7.874;2022-07-23T05:32:48;99049.72;;;22.80;69.58
73910;BME280;62245;48.070;7.874;2022-07-23T05:35:13;99039.66;;;22.81;69.88
73910;BME280;62245;48.070;7.874;2022-07-23T05:37:39;99055.09;;;22.85;69.47
73910;BME280;62245;48.070;7.874;2022-07-23T05:40:06;99050.34;;;22.96;69.35
73910;BME280;62245;48.070;7.874;2022-07-23T05:42:36;99054.47;;;22.93;68.88
73910;BME280;62245;48.070;7.874;2022-07-23T05:45:02;99063.84;;;23.06;69.10
73910;BME280;62245;48.070;7.874;2022-07-23T05:47:28;99057.34;;;23.02;68.32
73910;BME280;62245;48.070;7.874;2022-07-23T05:49:53;99063.06;;;23.01;68.92
73910;BME280;62245;48.070;7.874;2022-07-23T05:52:18;99062.22;;;23.05;68.52
73910;BME280;62245;48.070;7.874;2022-07-23T05:54:44;99059.22;;;23.07;68.35
73910;BME280;62245;48.070;7.874;2022-07-23T05:57:09;99072.56;;;23.03;69.01
73910;BME280;62245;48.070;7.874;2022-07-23T05:59:34;99069.28;;;23.06;68.94
73910;BME280;62245;48.070;7.874;2022-07-23T06:02:00;99074.44;;;23.08;68.83
73910;BME280;62245;48.070;7.874;2022-07-23T06:04:25;99079.53;;;23.14;70.36
73910;BME280;62245;48.070;7.874;2022-07-23T06:06:50;99084.09;;;22.95;71.05
73910;BME280;62245;48.070;7.874;2022-07-23T06:09:16;99083.81;;;22.68;72.78
73910;BME280;62245;48.070;7.874;2022-07-23T06:11:41;99101.72;;;22.74;72.72
73910;BME280;62245;48.070;7.874;2022-07-23T06:14:06;99102.13;;;22.91;72.48
73910;BME280;62245;48.070;7.874;2022-07-23T06:16:32;99112.00;;;22.82;72.73
73910;BME280;62245;48.070;7.874;2022-07-23T06:18:57;99105.53;;;22.73;73.66
73910;BME280;62245;48.070;7.874;2022-07-23T06:21:22;99096.81;;;22.42;74.74
73910;BME280;62245;48.070;7.874;2022-07-23T06:23:47;99106.16;;;22.65;74.16
73910;BME280;62245;48.070;7.874;2022-07-23T06:26:13;99103.22;;;22.90;73.42
73910;BME280;62245;48.070;7.874;2022-07-23T06:28:38;99098.00;;;23.17;72.67
73910;BME280;62245;48.070;7.874;2022-07-23T06:31:03;99099.16;;;23.35;72.20
73910;BME280;62245;48.070;7.874;2022-07-23T06:33:28;99103.03;;;23.05;72.75
73910;BME280;62245;48.070;7.874;2022-07-23T06:35:54;99105.94;;;22.90;73.47
73910;BME280;62245;48.070;7.874;2022-07-23T06:38:19;99103.13;;;23.19;72.64
73910;BME280;62245;48.070;7.874;2022-07-23T06:40:44;99106.78;;;23.09;72.73
73910;BME280;62245;48.070;7.874;2022-07-23T06:43:10;99116.28;;;23.36;71.67
73910;BME280;62245;48.070;7.874;2022-07-23T06:45:35;99123.94;;;23.57;71.33
73910;BME280;62245;48.070;7.874;2022-07-23T06:48:01;99114.88;;;23.62;70.51
73910;BME280;62245;48.070;7.874;2022-07-23T06:50:27;99116.94;;;23.70;70.50
73910;BME280;62245;48.070;7.874;2022-07-23T06:52:53;99117.75;;;23.70;69.73
73910;BME280;62245;48.070;7.874;2022-07-23T06:55:18;99129.94;;;23.78;69.81
73910;BME280;62245;48.070;7.874;2022-07-23T06:57:43;99121.91;;;23.68;69.82
73910;BME280;62245;48.070;7.874;2022-07-23T07:00:09;99134.78;;;23.81;69.83
73910;BME280;62245;48.070;7.874;2022-07-23T07:02:35;99141.13;;;23.77;69.50
73910;BME280;62245;48.070;7.874;2022-07-23T07:05:00;99147.88;;;23.79;69.74
73910;BME280;62245;48.070;7.874;2022-07-23T07:07:25;99148.97;;;23.59;69.88
73910;BME280;62245;48.070;7.874;2022-07-23T07:09:51;99144.63;;;23.35;71.19
73910;BME280;62245;48.070;7.874;2022-07-23T07:12:22;99143.91;;;23.48;70.48
73910;BME280;62245;48.070;7.874;2022-07-23T07:14:47;99145.69;;;23.81;70.04
73910;BME280;62245;48.070;7.874;2022-07-23T07:17:12;99141.84;;;23.82;69.28
73910;BME280;62245;48.070;7.874;2022-07-23T07:19:38;99146.06;;;23.75;67.85
73910;BME280;62245;48.070;7.874;2022-07-23T07:22:03;99144.78;;;23.67;67.74
73910;BME280;62245;48.070;7.874;2022-07-23T07:24:28;99149.78;;;23.79;66.99
73910;BME280;62245;48.070;7.874;2022-07-23T07:26:53;99144.81;;;23.43;68.97
73910;BME280;62245;48.070;7.874;2022-07-23T07:29:19;99160.16;;;23.58;67.66
73910;BME280;62245;48.070;7.874;2022-07-23T07:31:44;99162.16;;;23.47;68.24
73910;BME280;62245;48.070;7.874;2022-07-23T07:34:10;99164.31;;;23.74;67.65
73910;BME280;62245;48.070;7.874;2022-07-23T07:36:35;99160.41;;;23.80;66.96
73910;BME280;62245;48.070;7.874;2022-07-23T07:39:05;99184.84;;;23.66;66.68
73910;BME280;62245;48.070;7.874;2022-07-23T07:41:31;99185.41;;;23.63;68.75
73910;BME280;62245;48.070;7.874;2022-07-23T07:43:57;99181.22;;;23.71;69.18
73910;BME280;62245;48.070;7.874;2022-07-23T07:46:22;99185.22;;;23.79;67.90
73910;BME280;62245;48.070;7.874;2022-07-23T07:48:49;99174.31;;;23.79;67.57
73910;BME280;62245;48.070;7.874;2022-07-23T07:51:15;99168.97;;;23.92;66.56
73910;BME280;62245;48.070;7.874;2022-07-23T07:53:40;99155.31;;;23.74;65.53
73910;BME280;62245;48.070;7.874;2022-07-23T07:56:05;99178.78;;;24.12;65.66
73910;BME280;62245;48.070;7.874;2022-07-23T07:58:31;99182.94;;;24.28;64.74
73910;BME280;62245;48.070;7.874;2022-07-23T08:00:56;99175.41;;;24.20;63.57
73910;BME280;62245;48.070;7.874;2022-07-23T08:03:21;99168.84;;;24.40;62.86
73910;BME280;62245;48.070;7.874;2022-07-23T08:05:46;99164.00;;;24.37;62.29
73910;BME280;62245;48.070;7.874;2022-07-23T08:08:12;99172.19;;;24.13;63.32
73910;BME280;62245;48.070;7.874;2022-07-23T08:10:40;99183.91;;;24.14;63.21
73910;BME280;62245;48.070;7.874;2022-07-23T08:13:06;99166.28;;;24.30;62.58
73910;BME280;62245;48.070;7.874;2022-07-23T08:15:31;99175.53;;;24.48;62.58
73910;BME280;62245;48.070;7.874;2022-07-23T08:17:57;99171.69;;;24.49;62.19
73910;BME280;62245;48.070;7.874;2022-07-23T08:20:24;99166.31;;;24.62;60.64
73910;BME280;62245;48.070;7.874;2022-07-23T08:25:26;99158.19;;;24.57;61.61
73910;BME280;62245;48.070;7.874;2022-07-23T08:27:53;99161.69;;;24.76;61.20
73910;BME280;62245;48.070;7.874;2022-07-23T08:30:19;99163.81;;;24.98;59.95
73910;BME280;62245;48.070;7.874;2022-07-23T08:35:31;99160.25;;;24.98;59.20
73910;BME280;62245;48.070;7.874;2022-07-23T08:37:59;99163.69;;;25.03;57.58
73910;BME280;62245;48.070;7.874;2022-07-23T08:40:30;99171.22;;;25.25;57.49
73910;BME280;62245;48.070;7.874;2022-07-23T08:42:56;99166.75;;;25.15;57.60
73910;BME280;62245;48.070;7.874;2022-07-23T08:45:23;99178.13;;;24.90;57.65
73910;BME280;62245;48.070;7.874;2022-07-23T08:47:50;99182.59;;;25.00;58.07
73910;BME280;62245;48.070;7.874;2022-07-23T08:50:16;99190.53;;;25.15;58.70
73910;BME280;62245;48.070;7.874;2022-07-23T08:52:41;99189.78;;;24.96;57.55
73910;BME280;62245;48.070;7.874;2022-07-23T08:55:07;99193.94;;;25.07;57.64
73910;BME280;62245;48.070;7.874;2022-07-23T08:57:32;99186.06;;;25.19;57.03
73910;BME280;62245;48.070;7.874;2022-07-23T08:59:58;99182.03;;;25.30;56.95
73910;BME280;62245;48.070;7.874;2022-07-23T09:02:23;99182.38;;;25.42;55.68
73910;BME280;62245;48.070;7.874;2022-07-23T09:04:48;99161.81;;;25.59;56.68
73910;BME280;62245;48.070;7.874;2022-07-23T09:07:14;99179.25;;;25.76;55.94
73910;BME280;62245;48.070;7.874;2022-07-23T09:09:40;99174.34;;;25.87;55.78
73910;BME280;62245;48.070;7.874;2022-07-23T09:12:07;99175.75;;;25.98;55.43
73910;BME280;62245;48.070;7.874;2022-07-23T09:14:56;99169.31;;;26.16;54.82
73910;BME280;62245;48.070;7.874;2022-07-23T09:17:36;99173.66;;;26.31;54.51
73910;BME280;62245;48.070;7.874;2022-07-23T09:20:13;99171.16;;;26.07;54.96
73910;BME280;62245;48.070;7.874;2022-07-23T09:22:46;99174.41;;;26.09;54.89
73910;BME280;62245;48.070;7.874;2022-07-23T09:27:57;99169.72;;;25.60;56.23
73910;BME280;62245;48.070;7.874;2022-07-23T09:30:26;99172.53;;;25.69;55.44
73910;BME280;62245;48.070;7.874;2022-07-23T09:38:15;99166.88;;;26.28;53.92
73910;BME280;62245;48.070;7.874;2022-07-23T09:40:41;99162.38;;;26.46;53.68
73910;BME280;62245;48.070;7.874;2022-07-23T09:43:06;99160.81;;;26.54;53.70
73910;BME280;62245;48.070;7.874;2022-07-23T09:45:31;99166.16;;;26.90;52.95
73910;BME280;62245;48.070;7.874;2022-07-23T09:48:16;99155.56;;;26.88;52.67
73910;BME280;62245;48.070;7.874;2022-07-23T09:50:43;99166.75;;;26.78;52.31
73910;BME280;62245;48.070;7.874;2022-07-23T09:53:24;99169.47;;;27.00;51.20
73910;BME280;62245;48.070;7.874;2022-07-23T09:55:54;99172.75;;;27.11;51.67
73910;BME280;62245;48.070;7.874;2022-07-23T09:58:23;99161.22;;;26.70;51.86
73910;BME280;62245;48.070;7.874;2022-07-23T10:00:52;99171.25;;;26.96;51.23
73910;BME280;62245;48.070;7.874;2022-07-23T10:03:19;99173.16;;;27.27;50.96
73910;BME280;62245;48.070;7.874;2022-07-23T10:05:45;99178.34;;;27.37;50.63
73910;BME280;62245;48.070;7.874;2022-07-23T10:08:17;99180.75;;;27.69;49.98
73910;BME280;62245;48.070;7.874;2022-07-23T10:10:45;99181.59;;;27.87;49.79
73910;BME280;62245;48.070;7.874;2022-07-23T10:13:11;99185.41;;;28.17;49.03
73910;BME280;62245;48.070;7.874;2022-07-23T10:15:40;99168.31;;;27.24;49.69
73910;BME280;62245;48.070;7.874;2022-07-23T10:18:10;99172.38;;;27.35;50.46
73910;BME280;62245;48.070;7.874;2022-07-23T10:20:43;99172.50;;;27.61;50.55
73910;BME280;62245;48.070;7.874;2022-07-23T10:23:28;99190.13;;;27.86;48.90
73910;BME280;62245;48.070;7.874;2022-07-23T10:36:51;99180.19;;;28.07;47.73
73910;BME280;62245;48.070;7.874;2022-07-23T10:39:24;99185.72;;;28.24;48.22
73910;BME280;62245;48.070;7.874;2022-07-23T10:41:51;99172.28;;;28.05;46.86
73910;BME280;62245;48.070;7.874;2022-07-23T10:44:21;99165.19;;;28.13;46.48
73910;BME280;62245;48.070;7.874;2022-07-23T10:49:33;99166.28;;;27.95;45.94
73910;BME280;62245;48.070;7.874;2022-07-23T10:54:44;99187.78;;;28.10;44.31
73910;BME280;62245;48.070;7.874;2022-07-23T10:57:11;99176.31;;;27.99;43.96
73910;BME280;62245;48.070;7.874;2022-07-23T11:02:34;99190.88;;;28.17;42.38
73910;BME280;62245;48.070;7.874;2022-07-23T11:05:04;99180.16;;;27.98;43.05
73910;BME280;62245;48.070;7.874;2022-07-23T11:07:29;99176.44;;;28.03;42.52
73910;BME280;62245;48.070;7.874;2022-07-23T11:09:55;99180.34;;;28.10;43.19
73910;BME280;62245;48.070;7.874;2022-07-23T11:15:02;99180.22;;;28.50;44.02
73910;BME280;62245;48.070;7.874;2022-07-23T11:17:29;99179.59;;;28.36;44.84
73910;BME280;62245;48.070;7.874;2022-07-23T11:20:16;99175.22;;;28.43;44.90
73910;BME280;62245;48.070;7.874;2022-07-23T11:25:28;99179.22;;;28.89;44.55
73910;BME280;62245;48.070;7.874;2022-07-23T11:27:55;99169.06;;;28.81;43.55
73910;BME280;62245;48.070;7.874;2022-07-23T11:35:26;99163.16;;;29.08;42.45
73910;BME280;62245;48.070;7.874;2022-07-23T11:37:54;99173.53;;;29.03;43.40
73910;BME280;62245;48.070;7.874;2022-07-23T11:40:27;99164.72;;;28.80;43.41
73910;BME280;62245;48.070;7.874;2022-07-23T11:42:55;99176.00;;;28.87;43.90
73910;BME280;62245;48.070;7.874;2022-07-23T11:45:22;99170.19;;;28.88;43.76
73910;BME280;62245;48.070;7.874;2022-07-23T11:47:47;99162.44;;;28.82;44.20
73910;BME280;62245;48.070;7.874;2022-07-23T11:50:13;99157.53;;;29.05;44.58
73910;BME280;62245;48.070;7.874;2022-07-23T11:52:39;99162.53;;;29.11;43.77
73910;BME280;62245;48.070;7.874;2022-07-23T11:55:09;99165.84;;;29.25;42.91
73910;BME280;62245;48.070;7.874;2022-07-23T11:57:37;99167.09;;;28.73;43.21
73910;BME280;62245;48.070;7.874;2022-07-23T12:00:10;99161.28;;;28.74;43.58
73910;BME280;62245;48.070;7.874;2022-07-23T12:02:37;99157.59;;;28.87;42.77
73910;BME280;62245;48.070;7.874;2022-07-23T12:05:03;99151.56;;;29.03;43.22
73910;BME280;62245;48.070;7.874;2022-07-23T12:07:41;99161.97;;;29.26;44.91
73910;BME280;62245;48.070;7.874;2022-07-23T12:10:14;99166.88;;;29.12;43.27
73910;BME280;62245;48.070;7.874;2022-07-23T12:12:57;99158.16;;;29.10;44.84
73910;BME280;62245;48.070;7.874;2022-07-23T12:15:28;99167.00;;;29.16;44.07
73910;BME280;62245;48.070;7.874;2022-07-23T12:17:56;99168.59;;;28.79;43.98
73910;BME280;62245;48.070;7.874;2022-07-23T12:20:30;99170.66;;;28.73;43.74
73910;BME280;62245;48.070;7.874;2022-07-23T12:22:58;99163.91;;;28.79;44.38
73910;BME280;62245;48.070;7.874;2022-07-23T12:25:28;99167.91;;;28.90;44.51
73910;BME280;62245;48.070;7.874;2022-07-23T12:28:02;99164.47;;;29.11;45.26
73910;BME280;62245;48.070;7.874;2022-07-23T12:30:34;99155.59;;;29.05;43.57
73910;BME280;62245;48.070;7.874;2022-07-23T12:33:03;99155.16;;;28.86;44.25
73910;BME280;62245;48.070;7.874;2022-07-23T12:38:14;99145.09;;;28.99;44.59
73910;BME280;62245;48.070;7.874;2022-07-23T12:40:47;99142.06;;;28.92;43.79
73910;BME280;62245;48.070;7.874;2022-07-23T12:43:32;99146.59;;;28.96;44.27
73910;BME280;62245;48.070;7.874;2022-07-23T12:46:08;99140.75;;;28.89;43.68
73910;BME280;62245;48.070;7.874;2022-07-23T12:48:39;99146.13;;;28.85;44.02
73910;BME280;62245;48.070;7.874;2022-07-23T12:51:19;99145.47;;;28.88;43.66
73910;BME280;62245;48.070;7.874;2022-07-23T12:53:50;99137.34;;;29.01;43.25
73910;BME280;62245;48.070;7.874;2022-07-23T12:56:18;99136.81;;;29.07;43.55
73910;BME280;62245;48.070;7.874;2022-07-23T12:58:52;99145.34;;;29.23;43.34
73910;BME280;62245;48.070;7.874;2022-07-23T13:04:12;99151.91;;;29.48;43.12
73910;BME280;62245;48.070;7.874;2022-07-23T13:06:54;99153.53;;;29.70;43.02
73910;BME280;62245;48.070;7.874;2022-07-23T13:11:46;99142.00;;;30.06;43.03
73910;BME280;62245;48.070;7.874;2022-07-23T13:14:12;99141.19;;;30.26;42.45
73910;BME280;62245;48.070;7.874;2022-07-23T13:16:38;99135.63;;;30.14;42.61
73910;BME280;62245;48.070;7.874;2022-07-23T13:19:04;99148.91;;;30.53;42.68
73910;BME280;62245;48.070;7.874;2022-07-23T13:21:30;99139.78;;;30.61;42.44
73910;BME280;62245;48.070;7.874;2022-07-23T13:23:56;99141.41;;;30.74;41.86
73910;BME280;62245;48.070;7.874;2022-07-23T13:26:21;99140.03;;;30.81;40.73
73910;BME280;62245;48.070;7.874;2022-07-23T13:28:47;99125.59;;;30.84;41.17
73910;BME280;62245;48.070;7.874;2022-07-23T13:31:12;99129.16;;;30.96;41.35
73910;BME280;62245;48.070;7.874;2022-07-23T13:33:38;99135.59;;;31.00;41.74
73910;BME280;62245;48.070;7.874;2022-07-23T13:36:03;99135.94;;;30.87;41.89
73910;BME280;62245;48.070;7.874;2022-07-23T13:38:29;99139.38;;;30.84;42.54
73910;BME280;62245;48.070;7.874;2022-07-23T13:40:54;99133.41;;;30.94;41.67
73910;BME280;62245;48.070;7.874;2022-07-23T13:43:22;99128.81;;;30.98;41.82
73910;BME280;62245;48.070;7.874;2022-07-23T13:45:48;99129.63;;;30.86;40.82
73910;BME280;62245;48.070;7.874;2022-07-23T13:48:14;99133.09;;;30.62;41.25
73910;BME280;62245;48.070;7.874;2022-07-23T13:50:41;99126.16;;;30.77;42.09